Time;durP1;ratioP1;P1;durP2;ratioP2;P2;SDS_P1;SDS_P2;PMS_P1;PMS_P2;Temp;Humidity;BMP_temperature;BMP_pressure;BME280_temperature;BME280_humidity;BME280_pressure;Samples;Min_cycle;Max_cycle;Signal;HPM_P1;HPM_P2
2021/07/24 00:02:00;;;;;;;4.70;3.30;;;19.50;99.90;;;;;;5074243;28;20508;-85
2021/07/24 00:04:27;;;;;;;5.10;3.50;;;19.50;99.90;;;;;;5073867;28;20441;-85
2021/07/24 00:06:53;;;;;;;8.17;3.93;;;19.50;99.90;;;;;;5073460;28;20814;-85
2021/07/24 00:09:20;;;;;;;5.60;3.63;;;19.50;99.90;;;;;;5073782;28;20473;-85
2021/07/24 00:11:47;;;;;;;5.30;3.63;;;19.50;99.90;;;;;;5073487;28;20448;-84
2021/07/24 00:14:13;;;;;;;7.33;3.30;;;19.50;99.90;;;;;;5073879;28;20455;-83
2021/07/24 00:16:42;;;;;;;6.13;3.27;;;19.40;99.90;;;;;;5073864;28;20488;-88
2021/07/24 00:19:08;;;;;;;8.23;3.87;;;19.40;99.90;;;;;;5074388;28;20450;-88
2021/07/24 00:21:35;;;;;;;6.17;3.43;;;19.40;99.90;;;;;;5074605;28;20456;-87
2021/07/24 00:24:02;;;;;;;5.30;2.87;;;19.40;99.90;;;;;;5074306;28;20440;-87
2021/07/24 00:26:29;;;;;;;3.30;2.53;;;19.30;99.90;;;;;;5074659;28;20436;-87
2021/07/24 00:28:55;;;;;;;5.83;3.50;;;19.30;99.90;;;;;;5073965;28;20448;-87
2021/07/24 00:31:22;;;;;;;6.40;3.03;;;19.30;99.90;;;;;;5074404;28;20440;-87
2021/07/24 00:33:50;;;;;;;5.73;3.73;;;19.30;99.90;;;;;;5073837;28;20440;-87
2021/07/24 00:36:17;;;;;;;6.90;3.23;;;19.30;99.90;;;;;;5073878;28;20481;-87
2021/07/24 00:38:44;;;;;;;5.20;3.50;;;19.20;99.90;;;;;;5074273;28;20445;-87
2021/07/24 00:41:17;;;;;;;4.80;2.97;;;19.20;99.90;;;;;;5073823;28;21016;-90
2021/07/24 00:43:46;;;;;;;5.60;2.80;;;19.20;99.90;;;;;;5074625;28;20413;-90
2021/07/24 00:46:14;;;;;;;6.07;3.07;;;19.20;99.90;;;;;;5074140;28;20491;-90
2021/07/24 00:48:42;;;;;;;2.90;2.63;;;19.10;99.90;;;;;;5075485;28;20798;-90
2021/07/24 00:51:11;;;;;;;7.47;3.57;;;19.20;99.90;;;;;;5073608;28;20495;-88
2021/07/24 00:53:38;;;;;;;6.80;3.83;;;19.20;99.90;;;;;;5073715;28;20459;-89
2021/07/24 00:56:06;;;;;;;4.77;3.10;;;19.20;99.90;;;;;;5073656;28;20476;-89
2021/07/24 00:58:35;;;;;;;5.07;2.10;;;19.20;99.90;;;;;;5073757;28;20522;-87
2021/07/24 01:01:03;;;;;;;4.60;2.90;;;19.10;99.90;;;;;;5072883;28;20477;-86
2021/07/24 01:03:30;;;;;;;6.20;3.57;;;19.10;99.90;;;;;;5073201;28;20455;-87
2021/07/24 01:05:58;;;;;;;6.53;3.67;;;19.10;99.90;;;;;;5072978;28;20441;-86
2021/07/24 01:08:27;;;;;;;5.00;3.30;;;19.00;99.90;;;;;;5075430;28;20453;-89
2021/07/24 01:10:55;;;;;;;5.53;3.20;;;19.00;99.90;;;;;;5074601;28;20461;-87
2021/07/24 01:13:22;;;;;;;5.37;3.00;;;19.00;99.90;;;;;;5074773;28;20814;-89
2021/07/24 01:15:50;;;;;;;5.20;3.60;;;18.90;99.90;;;;;;5074920;28;20479;-89
2021/07/24 01:18:18;;;;;;;5.73;3.30;;;18.90;99.90;;;;;;5076296;28;20449;-86
2021/07/24 01:20:45;;;;;;;4.47;3.10;;;18.90;99.90;;;;;;5074742;28;20464;-87
2021/07/24 01:23:17;;;;;;;4.30;2.40;;;18.80;99.90;;;;;;5073611;28;20457;-87
2021/07/24 01:25:48;;;;;;;4.17;2.43;;;18.90;99.90;;;;;;5073489;28;20480;-87
2021/07/24 01:28:25;;;;;;;4.60;3.03;;;18.90;99.90;;;;;;5072625;28;20974;-87
2021/07/24 01:30:52;;;;;;;4.30;2.40;;;18.90;99.90;;;;;;5073282;28;20987;-86
2021/07/24 01:33:21;;;;;;;6.20;3.37;;;18.80;99.90;;;;;;5073751;28;20449;-87
2021/07/24 01:35:49;;;;;;;4.10;2.80;;;18.90;99.90;;;;;;5073382;28;20540;-87
2021/07/24 01:38:18;;;;;;;5.17;2.53;;;18.80;99.90;;;;;;5073841;28;20820;-87
2021/07/24 01:40:45;;;;;;;6.20;2.80;;;18.90;99.90;;;;;;5073397;28;20465;-87
2021/07/24 01:43:12;;;;;;;5.40;2.83;;;18.80;99.90;;;;;;5073873;28;20465;-87
2021/07/24 01:45:40;;;;;;;4.97;2.17;;;18.80;99.90;;;;;;5073198;28;20459;-87
2021/07/24 01:48:11;;;;;;;5.90;3.33;;;18.80;99.90;;;;;;5073995;28;20472;-87
2021/07/24 01:53:25;;;;;;;4.40;3.10;;;18.80;99.90;;;;;;5073556;28;20404;-86
2021/07/24 01:55:56;;;;;;;4.33;2.70;;;18.80;99.90;;;;;;5073282;28;20447;-87
2021/07/24 01:58:29;;;;;;;3.10;2.17;;;18.80;99.90;;;;;;5073377;28;20437;-87
2021/07/24 02:00:59;;;;;;;6.67;3.10;;;18.80;99.90;;;;;;5072843;28;20464;-85
2021/07/24 02:03:31;;;;;;;6.17;2.70;;;18.80;99.90;;;;;;5076513;28;20452;-85
2021/07/24 02:05:58;;;;;;;4.63;2.60;;;18.70;99.90;;;;;;5077080;28;20801;-85
2021/07/24 02:08:28;;;;;;;4.67;2.80;;;18.70;99.90;;;;;;5076737;28;20805;-87
2021/07/24 02:10:55;;;;;;;7.83;3.13;;;18.70;99.90;;;;;;5076436;28;20483;-87
2021/07/24 02:13:23;;;;;;;5.57;2.63;;;18.70;99.90;;;;;;5076920;28;20460;-87
2021/07/24 02:15:50;;;;;;;6.30;3.23;;;18.70;99.90;;;;;;5076527;28;20476;-85
2021/07/24 02:18:18;;;;;;;5.60;3.17;;;18.70;99.90;;;;;;5075820;28;20456;-85
2021/07/24 02:20:46;;;;;;;5.37;3.37;;;18.70;99.90;;;;;;5075675;28;21003;-84
2021/07/24 02:23:13;;;;;;;5.07;2.67;;;18.70;99.90;;;;;;5075964;28;20811;-86
2021/07/24 02:25:42;;;;;;;6.00;2.67;;;18.70;99.90;;;;;;5076281;28;20443;-86
2021/07/24 02:28:08;;;;;;;3.87;2.43;;;18.70;99.90;;;;;;5076473;28;20448;-87
2021/07/24 02:30:35;;;;;;;4.93;2.80;;;18.70;99.90;;;;;;5076171;28;20503;-86
2021/07/24 02:33:03;;;;;;;5.60;3.33;;;18.70;99.90;;;;;;5075546;28;20459;-84
2021/07/24 02:35:30;;;;;;;5.37;2.50;;;18.70;99.90;;;;;;5075654;28;20457;-85
2021/07/24 02:37:57;;;;;;;4.83;3.00;;;18.70;99.90;;;;;;5075863;28;20484;-85
2021/07/24 02:40:24;;;;;;;3.80;2.73;;;18.70;99.90;;;;;;5075438;28;20503;-85
2021/07/24 02:42:52;;;;;;;8.17;3.00;;;18.70;99.90;;;;;;5075464;28;20444;-85
2021/07/24 02:45:19;;;;;;;4.87;2.90;;;18.70;99.90;;;;;;5076183;28;20437;-85
2021/07/24 02:47:46;;;;;;;7.13;2.80;;;18.70;99.90;;;;;;5075452;28;20441;-85
2021/07/24 02:50:12;;;;;;;4.17;2.67;;;18.80;99.90;;;;;;5075551;28;20479;-84
2021/07/24 02:52:39;;;;;;;4.63;3.10;;;18.80;99.90;;;;;;5075158;28;20958;-85
2021/07/24 02:55:07;;;;;;;3.13;2.67;;;18.80;99.90;;;;;;5076239;28;20449;-87
2021/07/24 02:57:34;;;;;;;8.83;3.80;;;18.80;99.90;;;;;;5081114;28;21032;-85
2021/07/24 03:00:03;;;;;;;4.83;3.00;;;18.90;99.90;;;;;;5085476;28;20807;-87
2021/07/24 03:02:30;;;;;;;5.60;3.23;;;18.90;99.90;;;;;;5077787;28;20855;-85
2021/07/24 03:04:57;;;;;;;6.40;3.03;;;18.90;99.90;;;;;;5075501;28;20437;-85
2021/07/24 03:07:24;;;;;;;5.40;3.77;;;18.90;99.90;;;;;;5075093;28;20437;-85
2021/07/24 03:09:50;;;;;;;6.07;3.27;;;19.00;99.90;;;;;;5075376;28;20468;-85
2021/07/24 03:12:17;;;;;;;8.37;3.90;;;18.90;99.90;;;;;;5075569;28;20457;-86
2021/07/24 03:14:45;;;;;;;4.77;3.33;;;19.00;99.90;;;;;;5075987;28;20449;-86
2021/07/24 03:17:13;;;;;;;5.30;2.17;;;18.90;99.90;;;;;;5075527;28;20472;-85
2021/07/24 03:19:40;;;;;;;3.77;3.10;;;18.90;99.90;;;;;;5074685;28;20457;-84
2021/07/24 03:22:07;;;;;;;6.90;3.27;;;18.90;99.90;;;;;;5074974;28;20445;-85
2021/07/24 03:24:34;;;;;;;5.17;3.37;;;18.90;99.90;;;;;;5074943;28;20445;-85
2021/07/24 03:27:01;;;;;;;4.67;3.13;;;18.90;99.90;;;;;;5074542;28;20449;-85
2021/07/24 03:29:28;;;;;;;3.23;2.60;;;18.90;99.90;;;;;;5074605;28;20491;-85
2021/07/24 03:31:54;;;;;;;7.07;3.30;;;18.90;99.90;;;;;;5074441;28;20963;-85
2021/07/24 03:34:22;;;;;;;7.03;4.03;;;18.90;99.90;;;;;;5074700;28;20471;-86
2021/07/24 03:36:49;;;;;;;9.27;2.90;;;18.90;99.90;;;;;;5074492;28;20499;-85
2021/07/24 03:39:16;;;;;;;5.33;2.80;;;18.90;99.90;;;;;;5075056;28;20469;-85
2021/07/24 03:41:43;;;;;;;5.47;3.67;;;18.90;99.90;;;;;;5074999;28;20433;-85
2021/07/24 03:44:09;;;;;;;5.80;3.20;;;18.90;99.90;;;;;;5074909;28;20444;-87
2021/07/24 03:46:36;;;;;;;4.50;2.90;;;18.90;99.90;;;;;;5074729;28;20813;-87
2021/07/24 03:49:03;;;;;;;5.50;2.40;;;18.90;99.90;;;;;;5074960;28;20444;-87
2021/07/24 03:51:31;;;;;;;4.50;3.17;;;18.90;99.90;;;;;;5074412;28;20433;-87
2021/07/24 03:53:58;;;;;;;5.00;3.07;;;18.90;99.90;;;;;;5074909;28;20794;-87
2021/07/24 03:56:25;;;;;;;6.60;2.93;;;18.90;99.90;;;;;;5074930;28;20448;-87
2021/07/24 03:58:53;;;;;;;5.80;2.67;;;18.90;99.90;;;;;;5075070;28;20460;-87
2021/07/24 04:01:21;;;;;;;6.63;4.20;;;18.80;99.90;;;;;;5074362;28;20460;-87
2021/07/24 04:03:48;;;;;;;4.47;2.87;;;18.80;99.90;;;;;;5074508;28;20460;-87
2021/07/24 04:06:21;;;;;;;9.43;2.97;;;18.80;99.90;;;;;;5074622;28;20944;-87
2021/07/24 04:08:49;;;;;;;4.20;2.50;;;18.80;99.90;;;;;;5074463;28;20429;-87
2021/07/24 04:11:18;;;;;;;4.77;2.60;;;18.80;99.90;;;;;;5074737;28;20429;-87
2021/07/24 04:13:46;;;;;;;6.53;3.60;;;18.80;99.90;;;;;;5074071;28;20481;-85
2021/07/24 04:16:13;;;;;;;5.83;3.60;;;18.80;99.90;;;;;;5073512;28;20456;-85
2021/07/24 04:18:39;;;;;;;5.33;2.50;;;18.80;99.90;;;;;;5073482;28;20487;-85
2021/07/24 04:21:06;;;;;;;6.70;3.07;;;18.80;99.90;;;;;;5073795;28;20473;-85
2021/07/24 04:23:33;;;;;;;4.17;2.80;;;18.80;99.90;;;;;;5073254;28;20790;-84
2021/07/24 04:26:01;;;;;;;5.93;4.50;;;18.80;99.90;;;;;;5073304;28;20433;-85
2021/07/24 04:28:28;;;;;;;5.60;3.30;;;18.80;99.90;;;;;;5073983;28;20451;-85
2021/07/24 04:30:55;;;;;;;5.33;2.77;;;18.80;99.90;;;;;;5073417;28;20836;-85
2021/07/24 04:33:22;;;;;;;6.47;3.33;;;18.80;99.90;;;;;;5073862;28;20547;-85
2021/07/24 04:35:49;;;;;;;3.20;2.10;;;18.80;99.90;;;;;;5073570;28;20809;-85
2021/07/24 04:38:17;;;;;;;3.83;2.20;;;18.80;99.90;;;;;;5073283;28;20483;-85
2021/07/24 04:40:44;;;;;;;2.87;2.20;;;18.80;99.90;;;;;;5073504;28;20469;-84
2021/07/24 04:43:14;;;;;;;3.90;1.73;;;18.80;99.90;;;;;;5073425;28;20449;-84
2021/07/24 04:45:44;;;;;;;2.97;1.67;;;18.80;99.90;;;;;;5073440;28;20445;-84
2021/07/24 04:48:11;;;;;;;1.67;1.33;;;18.80;99.90;;;;;;5073430;28;20444;-84
2021/07/24 04:50:41;;;;;;;1.97;1.57;;;18.80;99.90;;;;;;5073670;28;20462;-85
2021/07/24 04:53:08;;;;;;;1.10;0.80;;;18.80;99.90;;;;;;5073589;28;20437;-85
2021/07/24 04:55:37;;;;;;;2.10;1.20;;;18.90;99.90;;;;;;5073155;28;20935;-85
2021/07/24 04:58:05;;;;;;;0.87;0.60;;;19.00;99.90;;;;;;5073382;28;20483;-86
2021/07/24 05:00:34;;;;;;;4.33;1.63;;;18.90;99.90;;;;;;5073352;28;20461;-85
2021/07/24 05:03:01;;;;;;;4.37;2.20;;;18.80;99.90;;;;;;5073057;28;20445;-85
2021/07/24 05:05:28;;;;;;;3.57;2.17;;;18.80;99.90;;;;;;5072987;28;20456;-85
2021/07/24 05:07:54;;;;;;;3.33;2.20;;;18.80;99.90;;;;;;5073202;28;20796;-85
2021/07/24 05:10:21;;;;;;;3.50;2.33;;;18.90;99.90;;;;;;5073560;28;20465;-85
2021/07/24 05:12:48;;;;;;;2.00;1.57;;;18.90;99.90;;;;;;5073325;28;20453;-85
2021/07/24 05:15:14;;;;;;;3.67;2.00;;;19.00;99.90;;;;;;5073284;28;20445;-85
2021/07/24 05:17:43;;;;;;;2.50;1.87;;;19.00;99.90;;;;;;5073239;28;20476;-85
2021/07/24 05:20:10;;;;;;;1.80;1.33;;;19.10;99.90;;;;;;5072833;28;20472;-85
2021/07/24 05:22:37;;;;;;;2.27;1.40;;;19.20;99.90;;;;;;5073333;28;20523;-86
2021/07/24 05:25:05;;;;;;;1.60;1.50;;;19.30;99.90;;;;;;5073298;28;20928;-86
2021/07/24 05:27:32;;;;;;;4.13;1.10;;;19.40;99.90;;;;;;5073323;28;20788;-85
2021/07/24 05:29:58;;;;;;;2.40;1.67;;;19.50;99.90;;;;;;5072862;28;20484;-86
2021/07/24 05:32:25;;;;;;;1.83;1.73;;;19.60;99.90;;;;;;5073368;28;20449;-86
2021/07/24 05:34:53;;;;;;;3.77;3.30;;;19.60;99.90;;;;;;5073326;28;20441;-86
2021/07/24 05:37:20;;;;;;;6.37;3.10;;;19.70;99.90;;;;;;5076328;28;20491;-85
2021/07/24 05:39:47;;;;;;;5.40;2.50;;;19.80;99.90;;;;;;5077137;28;20467;-85
2021/07/24 05:42:14;;;;;;;4.07;3.63;;;19.90;99.90;;;;;;5076890;28;20449;-86
2021/07/24 05:44:40;;;;;;;4.73;3.23;;;20.00;99.90;;;;;;5076909;28;20451;-86
2021/07/24 05:47:07;;;;;;;5.60;3.37;;;20.10;99.90;;;;;;5076750;28;20444;-85
2021/07/24 05:49:36;;;;;;;5.67;2.80;;;20.10;99.90;;;;;;5076804;28;20449;-86
2021/07/24 05:52:08;;;;;;;3.00;2.60;;;20.10;99.90;;;;;;5077122;28;20456;-85
2021/07/24 05:54:36;;;;;;;4.47;2.40;;;20.10;99.90;;;;;;5076694;28;20433;-85
2021/07/24 05:57:02;;;;;;;3.33;2.27;;;20.00;99.90;;;;;;5076476;28;20449;-84
2021/07/24 05:59:29;;;;;;;4.17;3.00;;;20.00;99.90;;;;;;5076313;28;20832;-85
2021/07/24 06:01:56;;;;;;;5.30;3.10;;;19.90;99.90;;;;;;5076567;28;20444;-85
2021/07/24 06:04:23;;;;;;;3.33;2.83;;;19.80;99.90;;;;;;5076626;28;20459;-86
2021/07/24 06:06:50;;;;;;;10.37;3.37;;;19.80;99.90;;;;;;5076492;28;20433;-85
2021/07/24 06:09:18;;;;;;;11.20;2.10;;;19.70;99.90;;;;;;5076391;28;20475;-86
2021/07/24 06:11:44;;;;;;;3.90;3.13;;;19.70;99.90;;;;;;5076717;28;20463;-86
2021/07/24 06:14:11;;;;;;;5.17;2.20;;;19.70;99.90;;;;;;5076359;28;20440;-86
2021/07/24 06:16:38;;;;;;;5.20;2.33;;;19.70;99.90;;;;;;5076584;28;20465;-86
2021/07/24 06:19:05;;;;;;;4.83;2.00;;;19.70;99.90;;;;;;5076022;28;20485;-85
2021/07/24 06:21:31;;;;;;;1.80;1.70;;;19.70;99.90;;;;;;5076136;28;20448;-85
2021/07/24 06:23:58;;;;;;;2.50;1.20;;;19.80;99.90;;;;;;5076349;28;20449;-86
2021/07/24 06:26:26;;;;;;;1.27;1.00;;;19.80;99.90;;;;;;5075995;28;20437;-86
2021/07/24 06:28:53;;;;;;;2.27;1.83;;;19.90;99.90;;;;;;5075544;28;20438;-86
2021/07/24 06:31:20;;;;;;;2.47;1.30;;;20.00;99.90;;;;;;5076085;28;20429;-86
2021/07/24 06:33:46;;;;;;;2.13;1.87;;;20.00;99.90;;;;;;5075896;28;20437;-86
2021/07/24 06:36:13;;;;;;;1.87;1.73;;;20.10;99.90;;;;;;5076071;28;20448;-86
2021/07/24 06:38:40;;;;;;;1.77;1.60;;;20.10;99.90;;;;;;5075925;28;20489;-85
2021/07/24 06:41:07;;;;;;;1.70;1.33;;;20.10;99.90;;;;;;5075716;28;20472;-85
2021/07/24 06:43:35;;;;;;;2.10;1.50;;;20.10;99.90;;;;;;5075432;28;20471;-85
2021/07/24 06:46:10;;;;;;;1.40;1.30;;;20.10;99.90;;;;;;5075750;28;20455;-86
2021/07/24 06:48:37;;;;;;;2.60;1.77;;;20.00;99.90;;;;;;5075166;28;20888;-86
2021/07/24 06:51:06;;;;;;;2.90;1.60;;;20.00;99.90;;;;;;5075214;28;20979;-86
2021/07/24 06:53:33;;;;;;;2.90;1.70;;;20.00;99.90;;;;;;5075517;28;20452;-86
2021/07/24 06:56:00;;;;;;;5.53;2.23;;;20.00;99.90;;;;;;5075571;28;20471;-86
2021/07/24 06:58:27;;;;;;;2.30;1.47;;;20.10;99.90;;;;;;5075152;28;20484;-86
2021/07/24 07:00:55;;;;;;;2.80;2.43;;;20.10;99.90;;;;;;5074890;28;20459;-84
2021/07/24 07:03:21;;;;;;;2.60;1.90;;;20.20;99.90;;;;;;5075149;28;20449;-84
2021/07/24 07:05:49;;;;;;;1.43;1.27;;;20.20;99.90;;;;;;5074949;28;20464;-84
2021/07/24 07:08:16;;;;;;;2.17;1.23;;;20.20;99.90;;;;;;5074959;28;20441;-84
2021/07/24 07:10:42;;;;;;;2.47;1.60;;;20.20;99.90;;;;;;5074878;28;20475;-84
2021/07/24 07:13:09;;;;;;;2.67;1.70;;;20.20;99.90;;;;;;5074606;28;20808;-85
2021/07/24 07:15:36;;;;;;;2.90;1.77;;;20.30;99.90;;;;;;5074945;28;20447;-85
2021/07/24 07:18:04;;;;;;;1.70;1.20;;;20.30;99.90;;;;;;5074760;28;20480;-86
2021/07/24 07:20:31;;;;;;;2.30;1.83;;;20.30;99.90;;;;;;5075403;28;20598;-87
2021/07/24 07:23:03;;;;;;;2.13;1.40;;;20.30;99.90;;;;;;5076124;28;20544;-87
2021/07/24 07:25:30;;;;;;;2.23;1.60;;;20.30;99.90;;;;;;5075497;28;20433;-87
2021/07/24 07:27:57;;;;;;;4.33;1.70;;;20.30;99.90;;;;;;5074867;28;20441;-86
2021/07/24 07:30:24;;;;;;;3.37;1.80;;;20.40;99.90;;;;;;5074748;28;20475;-89
2021/07/24 07:32:50;;;;;;;2.70;1.30;;;20.50;99.90;;;;;;5075773;28;20469;-88
2021/07/24 07:35:30;;;;;;;2.60;1.60;;;20.60;99.90;;;;;;5075466;28;20467;-88
2021/07/24 07:37:59;;;;;;;1.67;1.13;;;20.70;99.90;;;;;;5075404;28;20479;-86
2021/07/24 07:40:26;;;;;;;3.67;1.63;;;20.80;99.90;;;;;;5075271;28;20563;-88
2021/07/24 07:42:53;;;;;;;3.77;2.43;;;20.70;99.90;;;;;;5074671;28;20821;-87
2021/07/24 07:45:20;;;;;;;4.97;2.30;;;20.70;99.90;;;;;;5075064;28;20455;-87
2021/07/24 07:47:47;;;;;;;2.27;1.70;;;20.70;99.90;;;;;;5075453;28;20796;-88
2021/07/24 07:50:14;;;;;;;3.93;1.90;;;20.60;99.90;;;;;;5074488;28;20464;-85
2021/07/24 07:52:42;;;;;;;2.73;1.53;;;20.60;99.90;;;;;;5074181;28;20457;-85
2021/07/24 07:55:10;;;;;;;2.30;1.67;;;20.50;99.90;;;;;;5074115;28;20456;-85
2021/07/24 07:57:39;;;;;;;5.97;2.40;;;20.50;99.90;;;;;;5073729;28;20457;-85
2021/07/24 08:00:07;;;;;;;5.77;2.00;;;20.40;99.90;;;;;;5072982;28;20461;-85
2021/07/24 08:02:34;;;;;;;2.80;2.00;;;20.40;99.90;;;;;;5074261;28;20453;-84
2021/07/24 08:05:01;;;;;;;1.80;1.60;;;20.30;99.90;;;;;;5073807;28;20437;-85
2021/07/24 08:07:27;;;;;;;2.70;1.90;;;20.20;99.90;;;;;;5074002;28;20441;-86
2021/07/24 08:09:57;;;;;;;2.40;2.20;;;20.10;99.90;;;;;;5073798;28;20452;-85
2021/07/24 08:12:25;;;;;;;2.17;1.90;;;19.90;99.90;;;;;;5074117;28;20799;-87
2021/07/24 08:14:52;;;;;;;2.30;1.43;;;19.80;99.90;;;;;;5073913;28;20452;-86
2021/07/24 08:17:21;;;;;;;2.20;1.43;;;19.70;99.90;;;;;;5074178;28;20815;-86
2021/07/24 08:19:47;;;;;;;5.70;2.07;;;19.70;99.90;;;;;;5073800;28;20844;-86
2021/07/24 08:22:14;;;;;;;2.60;1.70;;;19.70;99.90;;;;;;5073929;28;20947;-87
2021/07/24 08:24:41;;;;;;;4.93;2.40;;;19.70;99.90;;;;;;5073959;28;20457;-86
2021/07/24 08:27:09;;;;;;;1.90;1.70;;;19.90;99.90;;;;;;5074271;28;20439;-86
2021/07/24 08:29:38;;;;;;;2.23;1.80;;;20.00;99.90;;;;;;5073779;28;20489;-88
2021/07/24 08:32:08;;;;;;;3.70;2.07;;;20.10;99.90;;;;;;5074836;28;20449;-86
2021/07/24 08:34:35;;;;;;;2.60;2.00;;;20.20;99.90;;;;;;5074906;28;20409;-90
2021/07/24 08:37:07;;;;;;;4.23;2.10;;;20.40;99.90;;;;;;5074473;28;20449;-89
2021/07/24 08:39:35;;;;;;;2.50;1.80;;;20.60;99.90;;;;;;5074467;28;20487;-88
2021/07/24 08:42:03;;;;;;;3.37;1.60;;;21.00;99.90;;;;;;5074284;28;20491;-87
2021/07/24 08:44:41;;;;;;;2.77;1.87;;;21.30;99.90;;;;;;5074404;28;20436;-88
2021/07/24 08:47:09;;;;;;;2.17;1.70;;;21.50;99.90;;;;;;5074300;28;20437;-90
2021/07/24 08:49:36;;;;;;;4.03;2.00;;;21.70;99.90;;;;;;5074008;28;20975;-89
2021/07/24 08:52:04;;;;;;;3.17;1.83;;;21.90;99.90;;;;;;5073883;28;20927;-87
2021/07/24 08:54:31;;;;;;;3.53;1.80;;;22.10;99.90;;;;;;5074319;28;20777;-87
2021/07/24 08:56:59;;;;;;;1.93;1.23;;;22.30;99.90;;;;;;5073530;28;20444;-79
2021/07/24 08:59:38;;;;;;;3.50;1.93;;;22.50;99.90;;;;;;5072861;28;20524;-85
2021/07/24 09:02:08;;;;;;;2.30;1.90;;;22.70;99.90;;;;;;5073193;28;20440;-85
2021/07/24 09:04:37;;;;;;;3.67;2.43;;;23.00;99.90;;;;;;5073048;28;20455;-90
2021/07/24 09:07:17;;;;;;;5.60;1.80;;;23.00;99.90;;;;;;5074185;28;20449;-90
2021/07/24 09:09:47;;;;;;;1.83;1.73;;;23.10;99.90;;;;;;5074225;28;20214;-88
2021/07/24 09:12:14;;;;;;;2.80;1.60;;;23.10;99.90;;;;;;5079553;28;20194;-90
2021/07/24 09:14:42;;;;;;;2.10;1.67;;;23.20;99.90;;;;;;5078407;28;20200;-90
2021/07/24 09:17:15;;;;;;;1.83;1.70;;;23.40;99.90;;;;;;5078754;28;20676;-91
2021/07/24 09:19:43;;;;;;;5.10;1.92;;;23.70;99.90;;;;;;5077608;28;20225;-89
2021/07/24 09:22:28;;;;;;;1.92;1.67;;;24.20;99.90;;;;;;5078158;28;20198;-89
2021/07/24 09:25:07;;;;;;;2.28;1.73;;;24.60;99.90;;;;;;5079621;28;20626;-88
2021/07/24 09:27:34;;;;;;;1.88;1.70;;;24.90;99.90;;;;;;5078807;28;20193;-88
2021/07/24 09:30:03;;;;;;;1.85;1.38;;;25.00;99.90;;;;;;5077304;28;20226;-88
2021/07/24 09:32:31;;;;;;;3.22;1.98;;;25.10;99.90;;;;;;5077782;28;20224;-89
2021/07/24 09:34:59;;;;;;;1.63;1.40;;;25.20;99.90;;;;;;5077357;28;20213;-88
2021/07/24 09:37:27;;;;;;;2.50;1.45;;;25.40;99.90;;;;;;5077400;28;20206;-88
2021/07/24 09:39:56;;;;;;;2.08;1.50;;;25.30;99.90;;;;;;5077518;28;20682;-88
2021/07/24 09:42:34;;;;;;;1.20;1.20;;;25.40;99.90;;;;;;5077525;28;20230;-89
2021/07/24 09:45:09;;;;;;;2.60;1.48;;;25.60;99.90;;;;;;5076948;28;20197;-89
2021/07/24 09:47:36;;;;;;;1.65;1.55;;;26.00;99.90;;;;;;5077405;28;20204;-87
2021/07/24 09:50:36;;;;;;;1.95;1.75;;;26.20;99.90;;;;;;5076821;28;20229;-87
2021/07/24 09:53:03;;;;;;;1.30;1.20;;;26.30;99.90;;;;;;5075996;28;20237;-89
2021/07/24 09:55:40;;;;;;;1.40;1.30;;;26.20;99.90;;;;;;5076825;28;20757;-85
2021/07/24 09:58:46;;;;;;;1.55;1.38;;;26.20;99.90;;;;;;5075772;28;20263;-88
2021/07/24 10:01:52;;;;;;;2.10;1.50;;;26.20;99.90;;;;;;5074242;22;20238;-89
2021/07/24 10:04:32;;;;;;;0.85;0.82;;;26.20;99.90;;;;;;5056881;28;20183;-84
2021/07/24 10:07:23;;;;;;;1.17;0.95;;;26.50;99.90;;;;;;5056731;28;20190;-87
2021/07/24 10:09:51;;;;;;;2.05;1.20;;;27.10;99.90;;;;;;5056334;28;20684;-85
2021/07/24 10:12:33;;;;;;;0.98;0.88;;;27.20;99.90;;;;;;5056313;28;20195;-88
2021/07/24 10:15:00;;;;;;;1.08;0.98;;;27.10;99.90;;;;;;5056343;28;20190;-86
2021/07/24 10:17:29;;;;;;;1.27;0.90;;;27.10;99.90;;;;;;5056269;28;20200;-87
2021/07/24 10:19:56;;;;;;;1.27;1.10;;;27.20;99.90;;;;;;5056306;28;20314;-87
2021/07/24 10:22:23;;;;;;;1.30;1.10;;;27.30;99.90;;;;;;5055253;28;20191;-88
2021/07/24 10:24:50;;;;;;;1.95;1.35;;;27.20;99.90;;;;;;5056389;28;20203;-87
2021/07/24 10:27:25;;;;;;;1.33;1.05;;;27.10;99.90;;;;;;5055709;28;20202;-86
2021/07/24 10:30:12;;;;;;;1.67;1.33;;;27.10;99.90;;;;;;5055442;28;20233;-86
2021/07/24 10:32:42;;;;;;;1.88;0.95;;;27.10;99.90;;;;;;5055981;28;20194;-87
2021/07/24 10:35:10;;;;;;;1.00;1.00;;;27.20;99.90;;;;;;5056718;28;20207;-86
2021/07/24 10:37:42;;;;;;;2.00;1.48;;;27.80;99.90;;;;;;5055400;28;20670;-87
2021/07/24 10:40:34;;;;;;;1.40;1.02;;;28.40;99.20;;;;;;5056267;28;20226;-86
2021/07/24 10:43:03;;;;;;;1.23;1.13;;;28.60;97.90;;;;;;5055818;28;20203;-87
2021/07/24 10:45:52;;;;;;;1.20;1.10;;;28.70;95.90;;;;;;5055819;28;20264;-86
2021/07/24 10:48:21;;;;;;;1.20;1.10;;;28.80;94.40;;;;;;5055504;28;20199;-85
2021/07/24 10:51:15;;;;;;;3.33;1.80;;;28.90;95.10;;;;;;5055685;28;20219;-86
2021/07/24 10:54:13;;;;;;;1.20;1.10;;;28.90;94.40;;;;;;5053701;28;20664;-87
2021/07/24 10:56:42;;;;;;;1.40;1.23;;;29.20;94.80;;;;;;5055657;28;20659;-87
2021/07/24 10:59:22;;;;;;;2.30;1.15;;;29.20;93.70;;;;;;5054797;28;20223;-84
2021/07/24 11:01:53;;;;;;;1.08;1.02;;;28.90;93.30;;;;;;5055252;28;20192;-89
2021/07/24 11:04:51;;;;;;;1.17;1.00;;;28.70;93.50;;;;;;5055389;28;20180;-86
2021/07/24 11:07:41;;;;;;;1.48;1.38;;;28.50;93.20;;;;;;5055874;28;20286;-85
2021/07/24 11:10:14;;;;;;;1.10;1.00;;;28.30;93.40;;;;;;5054587;28;20694;-87
2021/07/24 11:12:46;;;;;;;1.25;1.15;;;27.80;94.40;;;;;;5039229;28;20237;-86
2021/07/24 11:15:17;;;;;;;1.27;1.10;;;27.60;95.00;;;;;;5055258;28;20209;-85
2021/07/24 11:18:01;;;;;;;1.75;1.20;;;27.30;95.70;;;;;;5054641;28;20202;-87
2021/07/24 11:20:30;;;;;;;3.30;1.85;;;27.00;96.60;;;;;;5054001;28;20246;-87
2021/07/24 11:23:03;;;;;;;1.88;1.50;;;26.70;97.20;;;;;;5054661;28;20260;-86
2021/07/24 11:25:42;;;;;;;2.15;1.45;;;26.50;97.90;;;;;;5055722;28;20203;-86
2021/07/24 11:28:10;;;;;;;1.85;1.65;;;26.20;98.60;;;;;;5054596;28;20199;-85
2021/07/24 11:30:37;;;;;;;1.77;1.35;;;26.10;98.90;;;;;;5054334;28;20591;-87
2021/07/24 11:33:15;;;;;;;1.77;1.33;;;25.80;99.80;;;;;;5054760;28;20215;-93
2021/07/24 11:35:44;;;;;;;1.88;1.33;;;25.60;99.90;;;;;;5054754;28;20193;-85
2021/07/24 11:38:36;;;;;;;1.58;1.35;;;25.50;99.90;;;;;;5103741;27;20504;-85
2021/07/24 11:41:06;;;;;;;1.50;1.40;;;25.40;99.90;;;;;;5070730;28;20228;-85
2021/07/24 11:43:33;;;;;;;1.90;1.55;;;25.30;99.90;;;;;;5070789;28;20202;-85
2021/07/24 11:46:02;;;;;;;1.25;1.10;;;25.20;99.90;;;;;;5070720;28;20213;-84
2021/07/24 11:48:29;;;;;;;0.80;0.80;;;25.20;99.90;;;;;;5070676;28;20218;-85
2021/07/24 11:51:04;;;;;;;1.60;1.10;;;25.30;99.90;;;;;;5070649;28;20224;-85
2021/07/24 11:53:50;;;;;;;2.58;2.00;;;25.40;99.90;;;;;;5070260;28;20206;-84
2021/07/24 11:56:20;;;;;;;2.00;1.50;;;25.60;99.90;;;;;;5070502;28;20555;-84
2021/07/24 11:58:53;;;;;;;2.45;1.02;;;25.90;99.90;;;;;;5070474;28;20251;-84
2021/07/24 12:01:32;;;;;;;3.28;2.13;;;26.20;99.90;;;;;;5070452;28;20240;-84
2021/07/24 12:04:08;;;;;;;1.58;1.20;;;26.20;99.90;;;;;;5070253;28;20676;-85
2021/07/24 12:06:37;;;;;;;2.08;1.05;;;26.30;99.90;;;;;;5070602;28;20189;-86
2021/07/24 12:09:06;;;;;;;1.98;1.20;;;26.30;99.90;;;;;;5070278;28;20202;-86
2021/07/24 12:11:36;;;;;;;1.48;1.38;;;26.30;99.90;;;;;;5070271;28;20205;-86
2021/07/24 12:14:09;;;;;;;1.70;1.60;;;26.20;99.50;;;;;;5071018;28;20195;-85
2021/07/24 12:16:38;;;;;;;0.90;0.80;;;26.10;99.20;;;;;;5070331;28;20238;-85
2021/07/24 12:19:13;;;;;;;1.15;1.10;;;26.00;99.90;;;;;;5070030;28;20202;-85
2021/07/24 12:21:40;;;;;;;1.67;1.55;;;26.00;99.90;;;;;;5070040;28;20186;-84
2021/07/24 12:24:09;;;;;;;1.67;0.98;;;26.10;99.90;;;;;;5070694;28;20542;-85
2021/07/24 12:26:39;;;;;;;1.63;1.52;;;26.30;99.90;;;;;;5070688;28;20205;-87
2021/07/24 12:29:25;;;;;;;1.77;1.17;;;26.50;99.90;;;;;;5069875;28;20293;-87
2021/07/24 12:31:53;;;;;;;2.80;1.50;;;26.50;99.90;;;;;;5040358;28;20212;-87
2021/07/24 12:34:21;;;;;;;1.88;1.38;;;26.50;99.90;;;;;;5069678;28;20198;-86
2021/07/24 12:36:56;;;;;;;1.90;1.33;;;26.50;99.70;;;;;;5069432;28;20230;-85
2021/07/24 12:39:32;;;;;;;1.13;1.02;;;26.40;99.50;;;;;;5069590;28;20236;-84
2021/07/24 12:42:00;;;;;;;1.35;1.25;;;26.20;99.90;;;;;;5069545;28;20193;-85
2021/07/24 12:44:27;;;;;;;1.10;0.82;;;26.10;98.50;;;;;;5069224;28;20212;-85
2021/07/24 12:47:12;;;;;;;1.23;1.13;;;26.00;98.60;;;;;;5069785;28;20285;-86
2021/07/24 12:49:41;;;;;;;1.48;1.20;;;25.90;98.70;;;;;;5056971;28;20223;-84
2021/07/24 12:52:27;;;;;;;1.60;1.35;;;25.80;99.20;;;;;;5055816;28;20768;-84
2021/07/24 12:55:03;;;;;;;4.45;1.50;;;25.70;99.90;;;;;;5056050;28;20202;-85
2021/07/24 12:57:30;;;;;;;1.38;1.27;;;25.60;99.90;;;;;;5055940;28;20233;-85
2021/07/24 12:59:58;;;;;;;1.77;1.23;;;25.50;99.90;;;;;;5055623;28;20234;-85
2021/07/24 13:02:26;;;;;;;1.05;1.02;;;25.40;99.90;;;;;;5055608;28;20693;-85
2021/07/24 13:04:52;;;;;;;1.20;1.10;;;25.30;99.90;;;;;;5055869;28;20563;-85